createdAt,value
2018-12-08T00:01:26.143Z,7.90
2018-12-08T00:03:53.648Z,7.90
2018-12-08T00:06:21.085Z,7.90
2018-12-08T00:08:48.527Z,7.90
2018-12-08T00:11:15.967Z,7.90
2018-12-08T00:13:43.402Z,7.80
2018-12-08T00:16:10.843Z,7.70
2018-12-08T00:18:38.284Z,7.70
2018-12-08T00:21:05.723Z,7.60
2018-12-08T00:23:33.183Z,7.50
2018-12-08T00:26:00.624Z,7.50
2018-12-08T00:28:28.070Z,7.50
2018-12-08T00:34:04.432Z,7.30
2018-12-08T00:36:31.867Z,7.30
2018-12-08T00:38:59.307Z,7.20
2018-12-08T00:41:26.801Z,7.10
2018-12-08T00:43:54.254Z,7.00
2018-12-08T00:46:21.694Z,6.90
2018-12-08T00:48:49.134Z,6.80
2018-12-08T00:51:16.567Z,6.70
2018-12-08T00:53:44.012Z,6.60
2018-12-08T00:56:11.562Z,6.50
2018-12-08T00:58:39.014Z,6.50
2018-12-08T01:01:06.507Z,6.50
2018-12-08T01:03:33.954Z,6.50
2018-12-08T01:06:01.407Z,6.50
2018-12-08T01:08:28.846Z,6.50
2018-12-08T01:10:56.286Z,6.50
2018-12-08T01:13:23.731Z,6.50
2018-12-08T01:15:51.183Z,6.50
2018-12-08T01:18:18.760Z,6.50
2018-12-08T01:20:46.270Z,6.50
2018-12-08T01:23:13.711Z,6.50
2018-12-08T01:25:41.150Z,6.50
2018-12-08T01:28:08.600Z,6.50
2018-12-08T01:30:36.051Z,6.40
2018-12-08T01:33:03.483Z,6.40
2018-12-08T01:35:30.935Z,6.40
2018-12-08T01:37:58.374Z,6.40
2018-12-08T01:40:25.827Z,6.30
2018-12-08T01:42:56.758Z,6.40
2018-12-08T01:45:24.502Z,6.40
2018-12-08T01:47:51.938Z,6.30
2018-12-08T01:50:19.384Z,6.30
2018-12-08T01:52:46.827Z,6.30
2018-12-08T01:55:14.266Z,6.20
2018-12-08T01:57:41.716Z,6.20
2018-12-08T02:00:09.371Z,6.20
2018-12-08T02:02:36.918Z,6.20
2018-12-08T02:05:04.482Z,6.20
2018-12-08T02:07:31.926Z,6.20
2018-12-08T02:09:59.371Z,6.10
2018-12-08T02:12:26.863Z,6.20
2018-12-08T02:14:54.308Z,6.20
2018-12-08T02:17:21.750Z,6.10
2018-12-08T02:19:49.191Z,6.10
2018-12-08T02:22:16.701Z,5.90
2018-12-08T02:24:44.142Z,5.90
2018-12-08T02:27:11.594Z,5.90
2018-12-08T02:29:39.030Z,5.80
2018-12-08T02:32:06.473Z,5.80
2018-12-08T02:34:33.907Z,5.80
2018-12-08T02:37:01.352Z,5.80
2018-12-08T02:39:28.787Z,5.80
2018-12-08T02:41:56.241Z,5.80
2018-12-08T02:44:23.770Z,5.80
2018-12-08T02:46:51.302Z,5.70
2018-12-08T02:49:18.743Z,5.70
2018-12-08T02:51:46.201Z,5.70
2018-12-08T02:54:13.644Z,5.70
2018-12-08T02:56:41.105Z,5.70
2018-12-08T02:59:08.614Z,5.80
2018-12-08T03:01:36.122Z,5.80
2018-12-08T03:04:03.622Z,5.90
2018-12-08T03:06:31.079Z,5.90
2018-12-08T03:08:58.519Z,5.90
2018-12-08T03:11:25.962Z,5.80
2018-12-08T03:13:53.402Z,5.80
2018-12-08T03:16:20.844Z,5.80
2018-12-08T03:18:48.298Z,5.80
2018-12-08T03:21:15.733Z,5.80
2018-12-08T03:23:43.186Z,5.80
2018-12-08T03:26:10.623Z,5.70
2018-12-08T03:28:38.078Z,5.70
2018-12-08T03:31:05.519Z,5.70
2018-12-08T03:33:33.054Z,5.70
2018-12-08T03:36:00.494Z,5.60
2018-12-08T03:38:27.951Z,5.60
2018-12-08T03:40:55.399Z,5.60
2018-12-08T03:43:22.894Z,5.50
2018-12-08T03:45:50.342Z,5.50
2018-12-08T03:48:17.794Z,5.50
2018-12-08T03:50:45.244Z,5.50
2018-12-08T03:53:12.699Z,5.40
2018-12-08T03:55:40.142Z,5.40
2018-12-08T03:58:07.594Z,5.40
2018-12-08T04:00:35.039Z,5.40
2018-12-08T04:03:02.500Z,5.40
2018-12-08T04:05:30.084Z,5.30
2018-12-08T04:07:57.526Z,5.30
2018-12-08T04:10:24.980Z,5.30
2018-12-08T04:12:52.514Z,5.30
2018-12-08T04:15:19.962Z,5.30
2018-12-08T04:17:47.411Z,5.40
2018-12-08T04:20:14.850Z,5.30
2018-12-08T04:22:42.327Z,5.20
2018-12-08T04:25:09.824Z,5.20
2018-12-08T04:27:37.265Z,5.10
2018-12-08T04:30:05.910Z,5.10
2018-12-08T04:32:33.351Z,5.10
2018-12-08T04:35:00.798Z,5.10
2018-12-08T04:37:28.238Z,5.10
2018-12-08T04:39:55.735Z,5.10
2018-12-08T04:42:23.171Z,5.20
2018-12-08T04:44:50.622Z,5.20
2018-12-08T04:47:18.193Z,5.20
2018-12-08T04:49:45.654Z,5.20
2018-12-08T04:52:13.178Z,5.10
2018-12-08T04:54:40.625Z,5.10
2018-12-08T04:57:08.062Z,5.10
2018-12-08T04:59:35.511Z,5.00
2018-12-08T05:02:02.999Z,5.00
2018-12-08T05:04:30.505Z,5.00
2018-12-08T05:06:58.047Z,4.90
2018-12-08T05:09:25.500Z,4.90
2018-12-08T05:11:52.938Z,4.90
2018-12-08T05:14:20.379Z,4.90
2018-12-08T05:16:47.826Z,4.80
2018-12-08T05:19:15.266Z,4.80
2018-12-08T05:21:42.711Z,4.70
2018-12-08T05:24:10.146Z,4.70
2018-12-08T05:26:37.597Z,4.60
2018-12-08T05:29:05.101Z,4.60
2018-12-08T05:31:32.553Z,4.60
2018-12-08T05:34:00.004Z,4.60
2018-12-08T05:36:27.450Z,4.60
2018-12-08T05:38:54.895Z,4.70
2018-12-08T05:41:22.338Z,4.70
2018-12-08T05:43:49.782Z,4.70
2018-12-08T05:46:17.234Z,4.70
2018-12-08T05:48:44.670Z,4.80
2018-12-08T05:51:12.123Z,4.90
2018-12-08T05:53:39.563Z,4.80
2018-12-08T05:56:07.015Z,4.80
2018-12-08T05:58:34.463Z,4.80
2018-12-08T06:01:01.968Z,4.80
2018-12-08T06:03:29.516Z,4.90
2018-12-08T06:05:57.054Z,4.90
2018-12-08T06:08:24.547Z,4.90
2018-12-08T06:10:51.990Z,4.90
2018-12-08T06:13:19.427Z,4.90
2018-12-08T06:15:46.863Z,4.90
2018-12-08T06:18:14.314Z,4.90
2018-12-08T06:20:41.759Z,4.70
2018-12-08T06:23:09.210Z,4.70
2018-12-08T06:25:36.766Z,4.70
2018-12-08T06:28:07.427Z,4.60
2018-12-08T06:30:34.868Z,4.60
2018-12-08T06:33:02.314Z,4.50
2018-12-08T06:35:29.745Z,4.50
2018-12-08T06:37:57.194Z,4.50
2018-12-08T06:40:29.201Z,4.50
2018-12-08T06:42:54.080Z,4.50
2018-12-08T06:45:21.580Z,4.50
2018-12-08T06:47:49.035Z,4.50
2018-12-08T06:50:16.479Z,4.50
2018-12-08T06:52:43.922Z,4.50
2018-12-08T06:55:11.371Z,4.50
2018-12-08T06:57:38.819Z,4.50
2018-12-08T07:00:06.870Z,4.60
2018-12-08T07:02:34.306Z,4.60
2018-12-08T07:05:01.750Z,4.60
2018-12-08T07:07:29.195Z,4.60
2018-12-08T07:09:56.638Z,4.60
2018-12-08T07:12:24.126Z,4.60
2018-12-08T07:14:51.585Z,4.60
2018-12-08T07:17:19.019Z,4.70
2018-12-08T07:19:46.470Z,4.70
2018-12-08T07:22:13.903Z,4.70
2018-12-08T07:24:41.350Z,4.80
2018-12-08T07:27:08.807Z,4.80
2018-12-08T07:29:36.250Z,4.80
2018-12-08T07:32:03.751Z,4.90
2018-12-08T07:34:31.199Z,4.90
2018-12-08T07:36:58.698Z,4.90
2018-12-08T07:39:26.148Z,5.00
2018-12-08T07:41:53.635Z,5.00
2018-12-08T07:44:21.078Z,5.10
2018-12-08T07:46:48.587Z,5.10
2018-12-08T07:49:16.037Z,5.10
2018-12-08T07:51:43.474Z,5.20
2018-12-08T07:54:10.914Z,5.20
2018-12-08T07:56:38.371Z,5.30
2018-12-08T07:59:05.814Z,5.30
2018-12-08T08:01:33.317Z,5.30
2018-12-08T08:04:00.757Z,5.30
2018-12-08T08:06:28.223Z,5.30
2018-12-08T08:08:55.658Z,5.30
2018-12-08T08:11:23.103Z,5.40
2018-12-08T08:13:50.554Z,5.40
2018-12-08T08:16:17.995Z,5.40
2018-12-08T08:18:45.427Z,5.40
2018-12-08T08:21:12.930Z,5.50
2018-12-08T08:23:40.371Z,5.60
2018-12-08T08:26:07.811Z,5.60
2018-12-08T08:28:35.249Z,5.70
2018-12-08T08:31:02.687Z,5.80
2018-12-08T08:33:30.122Z,5.80
2018-12-08T08:35:57.566Z,5.80
2018-12-08T08:38:25.059Z,5.70
2018-12-08T08:40:52.563Z,5.70
2018-12-08T08:43:19.996Z,5.70
2018-12-08T08:45:47.523Z,5.70
2018-12-08T08:48:14.959Z,5.70
2018-12-08T08:50:42.455Z,5.70
2018-12-08T08:53:09.898Z,5.80
2018-12-08T08:55:37.339Z,5.80
2018-12-08T08:58:04.842Z,5.80
2018-12-08T09:00:32.274Z,5.80
2018-12-08T09:02:59.718Z,5.90
2018-12-08T09:05:27.160Z,6.00
2018-12-08T09:07:54.603Z,5.90
2018-12-08T09:10:22.051Z,6.00
2018-12-08T09:12:49.586Z,6.00
2018-12-08T09:15:17.030Z,6.10
2018-12-08T09:17:44.472Z,6.10
2018-12-08T09:20:11.916Z,6.10
2018-12-08T09:22:39.422Z,6.20
2018-12-08T09:25:07.006Z,6.20
2018-12-08T09:27:34.452Z,6.20
2018-12-08T09:30:01.891Z,6.20
2018-12-08T09:32:29.344Z,6.20
2018-12-08T09:34:56.783Z,6.30
2018-12-08T09:37:24.227Z,6.40
2018-12-08T09:39:51.724Z,6.40
2018-12-08T09:42:19.159Z,6.50
2018-12-08T09:44:46.650Z,6.50
2018-12-08T09:47:14.097Z,6.60
2018-12-08T09:49:41.543Z,6.50
2018-12-08T09:52:08.975Z,6.60
2018-12-08T09:54:36.418Z,6.60
2018-12-08T09:57:03.916Z,6.70
2018-12-08T09:59:31.363Z,6.70
2018-12-08T10:01:58.796Z,6.60
2018-12-08T10:04:26.236Z,6.70
2018-12-08T10:06:53.687Z,6.70
2018-12-08T10:09:21.143Z,6.70
2018-12-08T10:11:48.588Z,6.80
2018-12-08T10:14:16.079Z,6.90
2018-12-08T10:16:43.515Z,7.10
2018-12-08T10:19:10.962Z,7.00
2018-12-08T10:21:38.404Z,7.10
2018-12-08T10:24:05.857Z,7.10
2018-12-08T10:26:33.298Z,7.00
2018-12-08T10:29:00.735Z,7.10
2018-12-08T10:31:28.172Z,7.10
2018-12-08T10:33:55.667Z,7.20
2018-12-08T10:36:23.116Z,7.20
2018-12-08T10:38:50.547Z,7.20
2018-12-08T10:41:17.996Z,7.40
2018-12-08T10:43:45.439Z,7.40
2018-12-08T10:46:12.886Z,7.40
2018-12-08T10:48:40.326Z,7.50
2018-12-08T10:51:07.871Z,7.60
2018-12-08T10:53:35.315Z,7.60
2018-12-08T10:56:02.755Z,7.60
2018-12-08T10:58:30.195Z,7.60
2018-12-08T11:01:03.199Z,7.60
2018-12-08T11:03:34.562Z,7.60
2018-12-08T11:06:01.994Z,7.60
2018-12-08T11:08:29.438Z,7.70
2018-12-08T11:10:56.876Z,7.70
2018-12-08T11:13:24.327Z,7.80
2018-12-08T11:15:51.792Z,7.80
2018-12-08T11:18:19.227Z,7.90
2018-12-08T11:20:46.831Z,7.80
2018-12-08T11:23:14.274Z,7.80
2018-12-08T11:25:41.732Z,7.90
2018-12-08T11:28:09.178Z,7.90
2018-12-08T11:30:36.616Z,7.70
2018-12-08T11:33:04.063Z,7.60
2018-12-08T11:35:31.525Z,7.50
2018-12-08T11:37:58.974Z,7.40
2018-12-08T11:40:26.411Z,7.40
2018-12-08T11:42:53.862Z,7.50
2018-12-08T11:45:21.302Z,7.60
2018-12-08T11:47:48.748Z,7.60
2018-12-08T11:50:16.345Z,7.60
2018-12-08T11:52:43.839Z,7.70
2018-12-08T11:55:11.391Z,7.70
2018-12-08T11:57:38.823Z,7.80
2018-12-08T12:00:07.956Z,7.90
2018-12-08T12:02:35.395Z,7.80
2018-12-08T12:05:02.889Z,7.80
2018-12-08T12:07:30.333Z,7.70
2018-12-08T12:09:57.775Z,7.80
2018-12-08T12:12:25.210Z,7.80
2018-12-08T12:14:52.655Z,7.70
2018-12-08T12:17:20.094Z,7.80
2018-12-08T12:19:47.547Z,7.70
2018-12-08T12:22:14.984Z,7.70
2018-12-08T12:24:42.437Z,7.70
2018-12-08T12:27:09.866Z,7.80
2018-12-08T12:29:37.314Z,7.80
2018-12-08T12:32:04.752Z,7.90
2018-12-08T12:34:32.195Z,7.90
2018-12-08T12:36:59.629Z,7.80
2018-12-08T12:39:27.106Z,7.80
2018-12-08T12:41:54.560Z,7.80
2018-12-08T12:44:22.007Z,7.80
2018-12-08T12:46:49.447Z,7.60
2018-12-08T12:49:16.893Z,7.60
2018-12-08T12:51:44.333Z,7.60
2018-12-08T12:54:11.773Z,7.50
2018-12-08T12:56:39.211Z,7.60
2018-12-08T12:59:06.651Z,7.60
2018-12-08T13:01:34.098Z,7.70
2018-12-08T13:04:01.594Z,7.60
2018-12-08T13:06:29.197Z,7.60
2018-12-08T13:08:56.897Z,7.70
2018-12-08T13:11:24.343Z,7.70
2018-12-08T13:13:51.782Z,7.70
2018-12-08T13:16:19.267Z,7.80
2018-12-08T13:18:46.699Z,7.80
2018-12-08T13:21:14.135Z,7.80
2018-12-08T13:23:41.570Z,7.80
2018-12-08T13:26:09.016Z,7.80
2018-12-08T13:28:36.453Z,7.80
2018-12-08T13:31:04.004Z,7.80
2018-12-08T13:33:31.446Z,7.80
2018-12-08T13:35:58.894Z,7.70
2018-12-08T13:38:26.326Z,7.70
2018-12-08T13:40:53.828Z,7.70
2018-12-08T13:43:21.267Z,7.70
2018-12-08T13:45:48.755Z,7.60
2018-12-08T13:48:16.671Z,7.60
2018-12-08T13:50:44.281Z,7.60
2018-12-08T13:53:11.730Z,7.70
2018-12-08T13:55:39.165Z,7.70
2018-12-08T13:58:06.610Z,7.60
2018-12-08T14:00:34.202Z,7.50
2018-12-08T14:03:01.671Z,7.50
2018-12-08T14:05:29.114Z,7.50
2018-12-08T14:07:56.558Z,7.50
2018-12-08T14:10:24.021Z,7.50
2018-12-08T14:12:51.462Z,7.50
2018-12-08T14:15:19.042Z,7.50
2018-12-08T14:17:46.539Z,7.50
2018-12-08T14:20:22.971Z,7.50
2018-12-08T14:22:50.419Z,7.50
2018-12-08T14:25:17.911Z,7.50
2018-12-08T14:27:45.355Z,7.40
2018-12-08T14:30:12.791Z,7.40
2018-12-08T14:32:40.267Z,7.40
2018-12-08T14:35:07.835Z,7.30
2018-12-08T14:37:35.287Z,7.40
2018-12-08T14:40:03.342Z,7.30
2018-12-08T14:42:30.770Z,7.30
2018-12-08T14:44:58.270Z,7.30
2018-12-08T14:47:25.759Z,7.20
2018-12-08T14:49:53.217Z,7.10
2018-12-08T14:52:20.656Z,7.10
2018-12-08T14:54:48.103Z,7.10
2018-12-08T14:57:15.558Z,7.10
2018-12-08T14:59:43.059Z,7.10
2018-12-08T15:02:10.514Z,7.10
2018-12-08T15:04:37.951Z,7.00
2018-12-08T15:07:05.451Z,7.00
2018-12-08T15:09:32.901Z,7.00
2018-12-08T15:12:00.346Z,7.00
2018-12-08T15:14:27.802Z,7.00
2018-12-08T15:16:55.254Z,6.90
2018-12-08T15:19:22.761Z,6.80
2018-12-08T15:21:51.609Z,6.80
2018-12-08T15:24:19.302Z,6.70
2018-12-08T15:26:46.816Z,6.70
2018-12-08T15:29:14.278Z,6.70
2018-12-08T15:31:41.974Z,6.70
2018-12-08T15:34:09.497Z,6.80
2018-12-08T15:36:36.995Z,6.70
2018-12-08T15:39:06.435Z,6.80
2018-12-08T15:41:33.983Z,6.80
2018-12-08T15:44:01.810Z,6.80
2018-12-08T15:46:29.463Z,6.80
2018-12-08T15:48:56.930Z,6.70
2018-12-08T15:51:24.658Z,6.70
2018-12-08T15:53:52.169Z,6.70
2018-12-08T15:56:19.612Z,6.70
2018-12-08T15:58:47.119Z,6.70
2018-12-08T16:01:14.783Z,6.60
2018-12-08T16:03:42.294Z,6.60
2018-12-08T16:06:09.842Z,6.60
2018-12-08T16:08:37.339Z,6.60
2018-12-08T16:11:05.045Z,6.60
2018-12-08T16:13:32.567Z,6.60
2018-12-08T16:16:00.071Z,6.60
2018-12-08T16:18:27.559Z,6.60
2018-12-08T16:20:55.051Z,6.60
2018-12-08T16:23:22.499Z,6.60
2018-12-08T16:25:49.996Z,6.50
2018-12-08T16:28:17.431Z,6.60
2018-12-08T16:30:44.875Z,6.60
2018-12-08T16:33:12.315Z,6.70
2018-12-08T16:35:39.814Z,6.70
2018-12-08T16:38:07.247Z,6.70
2018-12-08T16:40:34.795Z,6.70
2018-12-08T16:43:02.234Z,6.80
2018-12-08T16:45:29.672Z,6.80
2018-12-08T16:47:57.118Z,6.90
2018-12-08T16:50:24.612Z,6.90
2018-12-08T16:52:52.067Z,6.90
2018-12-08T16:55:19.576Z,6.90
2018-12-08T16:57:47.014Z,6.90
2018-12-08T17:00:14.575Z,6.90
2018-12-08T17:02:42.126Z,6.90
2018-12-08T17:05:09.623Z,6.90
2018-12-08T17:07:37.067Z,6.90
2018-12-08T17:10:05.911Z,6.90
2018-12-08T17:12:33.406Z,6.90
2018-12-08T17:15:00.839Z,6.90
2018-12-08T17:17:28.285Z,6.90
2018-12-08T17:19:55.800Z,6.80
2018-12-08T17:22:23.239Z,6.80
2018-12-08T17:24:50.678Z,6.80
2018-12-08T17:27:18.135Z,6.80
2018-12-08T17:29:45.723Z,6.80
2018-12-08T17:32:13.155Z,6.70
2018-12-08T17:34:40.650Z,6.70
2018-12-08T17:37:08.138Z,6.70
2018-12-08T17:39:35.582Z,6.70
2018-12-08T17:42:03.022Z,6.70
2018-12-08T17:44:30.519Z,6.70
2018-12-08T17:46:58.011Z,6.70
2018-12-08T17:49:25.452Z,6.70
2018-12-08T17:51:52.901Z,6.70
2018-12-08T17:54:20.344Z,6.70
2018-12-08T17:56:47.788Z,6.80
2018-12-08T17:59:15.221Z,6.80
2018-12-08T18:01:42.668Z,6.80
2018-12-08T18:04:10.135Z,6.80
2018-12-08T18:06:37.567Z,6.80
2018-12-08T18:09:06.917Z,6.80
2018-12-08T18:11:34.359Z,6.80
2018-12-08T18:14:02.011Z,6.90
2018-12-08T18:16:29.544Z,6.80
2018-12-08T18:18:56.985Z,6.80
2018-12-08T18:21:24.550Z,6.80
2018-12-08T18:23:52.090Z,6.90
2018-12-08T18:26:19.539Z,6.90
2018-12-08T18:28:47.009Z,6.90
2018-12-08T18:31:14.453Z,6.90
2018-12-08T18:33:41.903Z,6.90
2018-12-08T18:36:09.394Z,6.90
2018-12-08T18:38:36.848Z,7.00
2018-12-08T18:41:04.357Z,7.00
2018-12-08T18:43:31.793Z,7.00
2018-12-08T18:45:59.242Z,7.10
2018-12-08T18:48:26.691Z,7.10
2018-12-08T18:50:54.914Z,7.10
2018-12-08T18:53:22.419Z,7.10
2018-12-08T18:55:49.922Z,7.10
2018-12-08T18:58:17.399Z,7.10
2018-12-08T19:00:44.866Z,7.20
2018-12-08T19:03:12.323Z,7.20
2018-12-08T19:05:39.764Z,7.20
2018-12-08T19:08:07.270Z,7.20
2018-12-08T19:10:34.770Z,7.20
2018-12-08T19:13:02.272Z,7.20
2018-12-08T19:15:29.814Z,7.20
2018-12-08T19:17:57.254Z,7.30
2018-12-08T19:20:24.696Z,7.30
2018-12-08T19:22:52.130Z,7.30
2018-12-08T19:25:19.579Z,7.40
2018-12-08T19:27:47.046Z,7.40
2018-12-08T19:30:14.488Z,7.40
2018-12-08T19:32:41.927Z,7.30
2018-12-08T19:35:09.419Z,7.40
2018-12-08T19:37:36.870Z,7.40
2018-12-08T19:40:05.131Z,7.40
2018-12-08T19:42:32.574Z,7.40
2018-12-08T19:45:00.023Z,7.50
2018-12-08T19:47:27.471Z,7.40
2018-12-08T19:49:55.067Z,7.40
2018-12-08T19:52:22.490Z,7.40
2018-12-08T19:54:49.943Z,7.50
2018-12-08T19:57:17.374Z,7.40
2018-12-08T19:59:44.825Z,7.40
2018-12-08T20:02:12.346Z,7.40
2018-12-08T20:04:39.855Z,7.50
2018-12-08T20:07:07.352Z,7.50
2018-12-08T20:09:34.798Z,7.50
2018-12-08T20:12:02.251Z,7.50
2018-12-08T20:14:29.679Z,7.50
2018-12-08T20:16:57.120Z,7.50
2018-12-08T20:19:24.558Z,7.50
2018-12-08T20:21:52.001Z,7.60
2018-12-08T20:24:19.436Z,7.50
2018-12-08T20:26:46.934Z,7.40
2018-12-08T20:29:14.392Z,7.40
2018-12-08T20:31:41.880Z,7.50
2018-12-08T20:34:09.380Z,7.50
2018-12-08T20:36:36.812Z,7.50
2018-12-08T20:39:04.858Z,7.50
2018-12-08T20:41:32.301Z,7.50
2018-12-08T20:43:59.734Z,7.40
2018-12-08T20:46:27.222Z,7.40
2018-12-08T20:48:54.667Z,7.40
2018-12-08T20:51:22.107Z,7.40
2018-12-08T20:53:49.546Z,7.40
2018-12-08T20:56:16.990Z,7.40
2018-12-08T20:58:46.150Z,7.40
2018-12-08T21:01:13.817Z,7.40
2018-12-08T21:03:41.255Z,7.40
2018-12-08T21:06:08.690Z,7.50
2018-12-08T21:08:36.138Z,7.40
2018-12-08T21:11:03.574Z,7.50
2018-12-08T21:13:31.020Z,7.50
2018-12-08T21:15:58.447Z,7.50
2018-12-08T21:18:25.892Z,7.50
2018-12-08T21:20:53.339Z,7.60
2018-12-08T21:23:20.771Z,7.70
2018-12-08T21:25:48.212Z,7.70
2018-12-08T21:28:15.670Z,7.80
2018-12-08T21:30:43.119Z,7.70
2018-12-08T21:33:10.652Z,7.60
2018-12-08T21:35:38.136Z,7.70
2018-12-08T21:38:05.575Z,7.70
2018-12-08T21:40:33.006Z,7.70
2018-12-08T21:43:00.455Z,7.70
2018-12-08T21:45:27.884Z,7.70
2018-12-08T21:47:55.338Z,7.70
2018-12-08T21:50:22.837Z,7.70
2018-12-08T21:52:50.281Z,7.70
2018-12-08T21:55:18.522Z,7.70
2018-12-08T21:57:45.971Z,7.70
2018-12-08T22:00:13.518Z,7.70
2018-12-08T22:02:40.963Z,7.70
2018-12-08T22:05:08.402Z,7.70
2018-12-08T22:07:35.835Z,7.70
2018-12-08T22:10:03.899Z,7.80
2018-12-08T22:12:31.339Z,7.80
2018-12-08T22:14:59.334Z,7.80
2018-12-08T22:17:26.874Z,7.80
2018-12-08T22:19:54.324Z,7.90
2018-12-08T22:22:21.769Z,7.90
2018-12-08T22:24:49.210Z,7.90
2018-12-08T22:27:16.654Z,7.90
2018-12-08T22:29:44.093Z,7.90
2018-12-08T22:32:11.538Z,7.90
2018-12-08T22:34:38.970Z,7.90
2018-12-08T22:37:06.410Z,7.90
2018-12-08T22:39:33.850Z,7.80
2018-12-08T22:42:01.293Z,7.70
2018-12-08T22:44:28.732Z,7.70
2018-12-08T22:46:56.190Z,7.70
2018-12-08T22:49:23.627Z,7.60
2018-12-08T22:51:51.080Z,7.70
2018-12-08T22:54:18.605Z,7.70
2018-12-08T22:56:46.034Z,7.80
2018-12-08T22:59:13.475Z,7.80
2018-12-08T23:01:41.014Z,7.80
2018-12-08T23:04:08.457Z,7.70
2018-12-08T23:06:35.898Z,7.80
2018-12-08T23:09:04.346Z,7.70
2018-12-08T23:11:31.891Z,7.70
2018-12-08T23:13:59.344Z,7.70
2018-12-08T23:16:26.882Z,7.60
2018-12-08T23:18:54.326Z,7.70
2018-12-08T23:21:21.769Z,7.60
2018-12-08T23:23:49.202Z,7.60
2018-12-08T23:26:16.651Z,7.60
2018-12-08T23:28:44.088Z,7.60
2018-12-08T23:31:11.591Z,7.60
2018-12-08T23:33:39.073Z,7.60
2018-12-08T23:36:06.567Z,7.60
2018-12-08T23:38:34.014Z,7.70
2018-12-08T23:41:01.447Z,7.80
2018-12-08T23:43:28.939Z,7.80
2018-12-08T23:45:56.375Z,7.90
2018-12-08T23:48:23.828Z,7.90
2018-12-08T23:50:51.261Z,8.00
2018-12-08T23:53:18.703Z,8.00
2018-12-08T23:55:46.140Z,7.80
2018-12-08T23:58:13.586Z,7.70
